sensor_id;sensor_type;location;lat;lon;timestamp;P1;durP1;ratioP1;P2;durP2;ratioP2
83511;SDS011;73446;0.000;0.000;2023-12-20T00:00:36;0.10;;;0.00;;
83511;SDS011;73446;0.000;0.000;2023-12-20T00:03:21;0.15;;;0.00;;
83511;SDS011;73446;0.000;0.000;2023-12-20T00:06:05;0.00;;;0.00;;
83511;SDS011;73446;0.000;0.000;2023-12-20T00:08:49;0.25;;;0.00;;
83511;SDS011;73446;0.000;0.000;2023-12-20T00:11:33;0.43;;;0.43;;
83511;SDS011;73446;0.000;0.000;2023-12-20T00:14:17;0.35;;;0.00;;
83511;SDS011;73446;0.000;0.000;2023-12-20T00:17:01;0.05;;;0.00;;
83511;SDS011;73446;0.000;0.000;2023-12-20T00:19:45;0.00;;;0.00;;
83511;SDS011;73446;0.000;0.000;2023-12-20T00:22:29;0.10;;;0.00;;
83511;SDS011;73446;0.000;0.000;2023-12-20T00:25:13;0.10;;;0.00;;
83511;SDS011;73446;0.000;0.000;2023-12-20T00:27:57;0.10;;;0.00;;
83511;SDS011;73446;0.000;0.000;2023-12-20T00:30:42;0.10;;;0.00;;
83511;SDS011;73446;0.000;0.000;2023-12-20T00:33:25;0.03;;;0.00;;
83511;SDS011;73446;0.000;0.000;2023-12-20T00:36:09;0.00;;;0.00;;
83511;SDS011;73446;0.000;0.000;2023-12-20T00:38:54;0.20;;;0.00;;
83511;SDS011;73446;0.000;0.000;2023-12-20T00:41:38;0.00;;;0.00;;
83511;SDS011;73446;0.000;0.000;2023-12-20T00:44:22;0.10;;;0.00;;
83511;SDS011;73446;0.000;0.000;2023-12-20T00:47:09;0.00;;;0.00;;
83511;SDS011;73446;0.000;0.000;2023-12-20T00:49:53;0.13;;;0.00;;
83511;SDS011;73446;0.000;0.000;2023-12-20T00:52:40;0.05;;;0.00;;
83511;SDS011;73446;0.000;0.000;2023-12-20T00:55:24;0.17;;;0.10;;
83511;SDS011;73446;0.000;0.000;2023-12-20T00:58:07;0.10;;;0.00;;
83511;SDS011;73446;0.000;0.000;2023-12-20T01:00:52;0.32;;;0.00;;
83511;SDS011;73446;0.000;0.000;2023-12-20T01:03:36;0.35;;;0.08;;
83511;SDS011;73446;0.000;0.000;2023-12-20T01:06:22;0.00;;;0.00;;
83511;SDS011;73446;0.000;0.000;2023-12-20T01:09:06;0.00;;;0.00;;
83511;SDS011;73446;0.000;0.000;2023-12-20T01:11:51;0.00;;;0.00;;
83511;SDS011;73446;0.000;0.000;2023-12-20T01:14:35;0.10;;;0.00;;
83511;SDS011;73446;0.000;0.000;2023-12-20T01:17:19;0.10;;;0.10;;
83511;SDS011;73446;0.000;0.000;2023-12-20T01:20:02;0.00;;;0.00;;
83511;SDS011;73446;0.000;0.000;2023-12-20T01:22:47;0.22;;;0.22;;
83511;SDS011;73446;0.000;0.000;2023-12-20T01:25:31;0.03;;;0.00;;
83511;SDS011;73446;0.000;0.000;2023-12-20T01:28:15;0.03;;;0.00;;
83511;SDS011;73446;0.000;0.000;2023-12-20T01:30:59;0.00;;;0.00;;
83511;SDS011;73446;0.000;0.000;2023-12-20T01:33:43;0.00;;;0.00;;
83511;SDS011;73446;0.000;0.000;2023-12-20T01:36:27;0.00;;;0.00;;
83511;SDS011;73446;0.000;0.000;2023-12-20T01:39:11;0.00;;;0.00;;
83511;SDS011;73446;0.000;0.000;2023-12-20T01:41:55;0.00;;;0.00;;
83511;SDS011;73446;0.000;0.000;2023-12-20T01:44:39;0.10;;;0.00;;
83511;SDS011;73446;0.000;0.000;2023-12-20T01:47:23;0.00;;;0.00;;
83511;SDS011;73446;0.000;0.000;2023-12-20T01:50:07;0.00;;;0.00;;
83511;SDS011;73446;0.000;0.000;2023-12-20T01:52:52;0.00;;;0.00;;
83511;SDS011;73446;0.000;0.000;2023-12-20T01:55:41;0.00;;;0.00;;
83511;SDS011;73446;0.000;0.000;2023-12-20T01:58:26;0.22;;;0.00;;
83511;SDS011;73446;0.000;0.000;2023-12-20T02:01:11;0.00;;;0.00;;
83511;SDS011;73446;0.000;0.000;2023-12-20T02:03:56;0.00;;;0.00;;
83511;SDS011;73446;0.000;0.000;2023-12-20T02:06:40;0.10;;;0.00;;
83511;SDS011;73446;0.000;0.000;2023-12-20T02:09:26;0.00;;;0.00;;
83511;SDS011;73446;0.000;0.000;2023-12-20T02:12:11;0.00;;;0.00;;
83511;SDS011;73446;0.000;0.000;2023-12-20T02:14:55;0.00;;;0.00;;
83511;SDS011;73446;0.000;0.000;2023-12-20T02:17:39;0.10;;;0.03;;
83511;SDS011;73446;0.000;0.000;2023-12-20T02:20:24;0.00;;;0.00;;
83511;SDS011;73446;0.000;0.000;2023-12-20T02:23:08;0.00;;;0.00;;
83511;SDS011;73446;0.000;0.000;2023-12-20T02:25:52;0.10;;;0.00;;
83511;SDS011;73446;0.000;0.000;2023-12-20T02:28:35;0.00;;;0.00;;
83511;SDS011;73446;0.000;0.000;2023-12-20T02:31:21;0.00;;;0.00;;
83511;SDS011;73446;0.000;0.000;2023-12-20T02:34:06;0.00;;;0.00;;
83511;SDS011;73446;0.000;0.000;2023-12-20T02:36:50;0.00;;;0.00;;
83511;SDS011;73446;0.000;0.000;2023-12-20T02:39:34;0.00;;;0.00;;
83511;SDS011;73446;0.000;0.000;2023-12-20T02:42:18;0.00;;;0.00;;
83511;SDS011;73446;0.000;0.000;2023-12-20T02:45:02;0.00;;;0.00;;
83511;SDS011;73446;0.000;0.000;2023-12-20T02:47:46;0.00;;;0.00;;
83511;SDS011;73446;0.000;0.000;2023-12-20T02:50:30;0.00;;;0.00;;
83511;SDS011;73446;0.000;0.000;2023-12-20T02:53:14;0.00;;;0.00;;
83511;SDS011;73446;0.000;0.000;2023-12-20T02:55:58;0.20;;;0.00;;
83511;SDS011;73446;0.000;0.000;2023-12-20T02:58:42;0.03;;;0.00;;
83511;SDS011;73446;0.000;0.000;2023-12-20T03:01:27;0.00;;;0.00;;
83511;SDS011;73446;0.000;0.000;2023-12-20T03:04:12;0.00;;;0.00;;
83511;SDS011;73446;0.000;0.000;2023-12-20T03:06:56;0.05;;;0.00;;
83511;SDS011;73446;0.000;0.000;2023-12-20T03:09:40;0.00;;;0.00;;
83511;SDS011;73446;0.000;0.000;2023-12-20T03:12:24;0.00;;;0.00;;
83511;SDS011;73446;0.000;0.000;2023-12-20T03:15:08;0.00;;;0.00;;
83511;SDS011;73446;0.000;0.000;2023-12-20T03:17:52;0.00;;;0.00;;
83511;SDS011;73446;0.000;0.000;2023-12-20T03:20:37;0.00;;;0.00;;
83511;SDS011;73446;0.000;0.000;2023-12-20T03:23:21;0.25;;;0.00;;
83511;SDS011;73446;0.000;0.000;2023-12-20T03:26:08;0.10;;;0.00;;
83511;SDS011;73446;0.000;0.000;2023-12-20T03:28:52;0.00;;;0.00;;
83511;SDS011;73446;0.000;0.000;2023-12-20T03:31:36;0.00;;;0.00;;
83511;SDS011;73446;0.000;0.000;2023-12-20T03:34:20;0.00;;;0.00;;
83511;SDS011;73446;0.000;0.000;2023-12-20T03:37:04;0.00;;;0.00;;
83511;SDS011;73446;0.000;0.000;2023-12-20T03:39:48;0.00;;;0.00;;
83511;SDS011;73446;0.000;0.000;2023-12-20T03:42:32;0.00;;;0.00;;
83511;SDS011;73446;0.000;0.000;2023-12-20T03:45:17;0.00;;;0.00;;
83511;SDS011;73446;0.000;0.000;2023-12-20T03:48:01;0.00;;;0.00;;
83511;SDS011;73446;0.000;0.000;2023-12-20T03:50:45;0.00;;;0.00;;
83511;SDS011;73446;0.000;0.000;2023-12-20T03:53:29;0.10;;;0.00;;
83511;SDS011;73446;0.000;0.000;2023-12-20T03:56:13;0.13;;;0.00;;
83511;SDS011;73446;0.000;0.000;2023-12-20T03:58:57;0.00;;;0.00;;
83511;SDS011;73446;0.000;0.000;2023-12-20T04:01:44;0.00;;;0.00;;
83511;SDS011;73446;0.000;0.000;2023-12-20T04:04:28;0.00;;;0.00;;
83511;SDS011;73446;0.000;0.000;2023-12-20T04:07:12;0.10;;;0.00;;
83511;SDS011;73446;0.000;0.000;2023-12-20T04:09:56;0.00;;;0.00;;
83511;SDS011;73446;0.000;0.000;2023-12-20T04:12:40;0.17;;;0.13;;
83511;SDS011;73446;0.000;0.000;2023-12-20T04:15:24;0.00;;;0.00;;
83511;SDS011;73446;0.000;0.000;2023-12-20T04:18:08;0.00;;;0.00;;
83511;SDS011;73446;0.000;0.000;2023-12-20T04:20:51;0.00;;;0.00;;
83511;SDS011;73446;0.000;0.000;2023-12-20T04:23:35;0.00;;;0.00;;
83511;SDS011;73446;0.000;0.000;2023-12-20T04:26:19;0.03;;;0.00;;
83511;SDS011;73446;0.000;0.000;2023-12-20T04:29:03;0.00;;;0.00;;
83511;SDS011;73446;0.000;0.000;2023-12-20T04:31:47;0.17;;;0.00;;
83511;SDS011;73446;0.000;0.000;2023-12-20T04:34:31;0.20;;;0.00;;
83511;SDS011;73446;0.000;0.000;2023-12-20T04:37:15;0.00;;;0.00;;
83511;SDS011;73446;0.000;0.000;2023-12-20T04:39:59;0.00;;;0.00;;
83511;SDS011;73446;0.000;0.000;2023-12-20T04:42:43;0.00;;;0.00;;
83511;SDS011;73446;0.000;0.000;2023-12-20T04:45:27;0.00;;;0.00;;
83511;SDS011;73446;0.000;0.000;2023-12-20T04:48:11;0.00;;;0.00;;
83511;SDS011;73446;0.000;0.000;2023-12-20T04:50:56;0.00;;;0.00;;
83511;SDS011;73446;0.000;0.000;2023-12-20T04:53:40;0.13;;;0.13;;
83511;SDS011;73446;0.000;0.000;2023-12-20T04:56:24;0.00;;;0.00;;
83511;SDS011;73446;0.000;0.000;2023-12-20T04:59:08;0.10;;;0.00;;
83511;SDS011;73446;0.000;0.000;2023-12-20T05:01:52;0.10;;;0.10;;
83511;SDS011;73446;0.000;0.000;2023-12-20T05:04:36;0.10;;;0.00;;
83511;SDS011;73446;0.000;0.000;2023-12-20T05:07:20;0.00;;;0.00;;
83511;SDS011;73446;0.000;0.000;2023-12-20T05:10:04;0.00;;;0.00;;
83511;SDS011;73446;0.000;0.000;2023-12-20T05:12:49;0.00;;;0.00;;
83511;SDS011;73446;0.000;0.000;2023-12-20T05:15:33;0.00;;;0.00;;
83511;SDS011;73446;0.000;0.000;2023-12-20T05:18:17;0.00;;;0.00;;
83511;SDS011;73446;0.000;0.000;2023-12-20T05:21:01;0.00;;;0.00;;
83511;SDS011;73446;0.000;0.000;2023-12-20T05:23:45;0.00;;;0.00;;
83511;SDS011;73446;0.000;0.000;2023-12-20T05:26:29;0.10;;;0.00;;
83511;SDS011;73446;0.000;0.000;2023-12-20T05:29:13;0.00;;;0.00;;
83511;SDS011;73446;0.000;0.000;2023-12-20T05:31:58;0.00;;;0.00;;
83511;SDS011;73446;0.000;0.000;2023-12-20T05:34:42;0.00;;;0.00;;
83511;SDS011;73446;0.000;0.000;2023-12-20T05:37:26;0.10;;;0.10;;
83511;SDS011;73446;0.000;0.000;2023-12-20T05:40:10;0.00;;;0.00;;
83511;SDS011;73446;0.000;0.000;2023-12-20T05:42:54;0.17;;;0.17;;
83511;SDS011;73446;0.000;0.000;2023-12-20T05:45:38;0.00;;;0.00;;
83511;SDS011;73446;0.000;0.000;2023-12-20T05:48:22;0.00;;;0.00;;
83511;SDS011;73446;0.000;0.000;2023-12-20T05:51:06;0.25;;;0.00;;
83511;SDS011;73446;0.000;0.000;2023-12-20T05:53:50;0.00;;;0.00;;
83511;SDS011;73446;0.000;0.000;2023-12-20T05:56:34;0.00;;;0.00;;
83511;SDS011;73446;0.000;0.000;2023-12-20T05:59:18;0.00;;;0.00;;
83511;SDS011;73446;0.000;0.000;2023-12-20T06:02:03;0.10;;;0.00;;
83511;SDS011;73446;0.000;0.000;2023-12-20T06:04:48;0.00;;;0.00;;
83511;SDS011;73446;0.000;0.000;2023-12-20T06:07:32;0.00;;;0.00;;
83511;SDS011;73446;0.000;0.000;2023-12-20T06:10:17;0.10;;;0.00;;
83511;SDS011;73446;0.000;0.000;2023-12-20T06:13:01;0.08;;;0.00;;
83511;SDS011;73446;0.000;0.000;2023-12-20T06:15:44;0.00;;;0.00;;
83511;SDS011;73446;0.000;0.000;2023-12-20T06:18:30;0.25;;;0.00;;
83511;SDS011;73446;0.000;0.000;2023-12-20T06:21:14;0.00;;;0.00;;
83511;SDS011;73446;0.000;0.000;2023-12-20T06:23:58;0.03;;;0.00;;
83511;SDS011;73446;0.000;0.000;2023-12-20T06:26:43;0.00;;;0.00;;
83511;SDS011;73446;0.000;0.000;2023-12-20T06:29:27;0.20;;;0.00;;
83511;SDS011;73446;0.000;0.000;2023-12-20T06:32:11;0.30;;;0.00;;
83511;SDS011;73446;0.000;0.000;2023-12-20T06:34:56;0.10;;;0.00;;
83511;SDS011;73446;0.000;0.000;2023-12-20T06:37:40;0.00;;;0.00;;
83511;SDS011;73446;0.000;0.000;2023-12-20T06:40:26;0.43;;;0.00;;
83511;SDS011;73446;0.000;0.000;2023-12-20T06:45:58;2.15;;;0.00;;
83511;SDS011;73446;0.000;0.000;2023-12-20T06:48:42;0.10;;;0.00;;
83511;SDS011;73446;0.000;0.000;2023-12-20T06:51:26;0.20;;;0.00;;
83511;SDS011;73446;0.000;0.000;2023-12-20T06:54:12;0.32;;;0.00;;
83511;SDS011;73446;0.000;0.000;2023-12-20T06:56:56;2.20;;;0.00;;
83511;SDS011;73446;0.000;0.000;2023-12-20T06:59:40;1.73;;;0.00;;
83511;SDS011;73446;0.000;0.000;2023-12-20T07:02:24;0.93;;;0.00;;
83511;SDS011;73446;0.000;0.000;2023-12-20T07:05:08;4.65;;;0.03;;
83511;SDS011;73446;0.000;0.000;2023-12-20T07:07:52;2.15;;;0.00;;
83511;SDS011;73446;0.000;0.000;2023-12-20T07:10:36;1.65;;;0.30;;
83511;SDS011;73446;0.000;0.000;2023-12-20T07:13:20;4.18;;;1.55;;
83511;SDS011;73446;0.000;0.000;2023-12-20T07:16:05;3.15;;;0.03;;
83511;SDS011;73446;0.000;0.000;2023-12-20T07:18:49;2.30;;;0.10;;
83511;SDS011;73446;0.000;0.000;2023-12-20T07:21:33;4.00;;;0.45;;
83511;SDS011;73446;0.000;0.000;2023-12-20T07:24:18;1.52;;;0.00;;
83511;SDS011;73446;0.000;0.000;2023-12-20T07:27:04;1.60;;;0.08;;
83511;SDS011;73446;0.000;0.000;2023-12-20T07:29:48;1.42;;;0.00;;
83511;SDS011;73446;0.000;0.000;2023-12-20T07:32:32;0.85;;;0.10;;
83511;SDS011;73446;0.000;0.000;2023-12-20T07:35:16;2.47;;;0.00;;
83511;SDS011;73446;0.000;0.000;2023-12-20T07:38:00;0.82;;;0.00;;
83511;SDS011;73446;0.000;0.000;2023-12-20T07:40:44;0.50;;;0.35;;
83511;SDS011;73446;0.000;0.000;2023-12-20T07:43:28;1.75;;;0.03;;
83511;SDS011;73446;0.000;0.000;2023-12-20T07:46:12;1.27;;;0.10;;
83511;SDS011;73446;0.000;0.000;2023-12-20T07:48:56;0.10;;;0.00;;
83511;SDS011;73446;0.000;0.000;2023-12-20T07:51:40;1.67;;;0.00;;
83511;SDS011;73446;0.000;0.000;2023-12-20T07:54:24;2.72;;;0.00;;
83511;SDS011;73446;0.000;0.000;2023-12-20T07:57:08;1.08;;;0.00;;
83511;SDS011;73446;0.000;0.000;2023-12-20T07:59:52;3.72;;;0.20;;
83511;SDS011;73446;0.000;0.000;2023-12-20T08:02:36;0.20;;;0.00;;
83511;SDS011;73446;0.000;0.000;2023-12-20T08:05:20;0.63;;;0.00;;
83511;SDS011;73446;0.000;0.000;2023-12-20T08:10:51;0.47;;;0.08;;
83511;SDS011;73446;0.000;0.000;2023-12-20T08:13:35;2.30;;;0.00;;
83511;SDS011;73446;0.000;0.000;2023-12-20T08:16:19;0.63;;;0.00;;
83511;SDS011;73446;0.000;0.000;2023-12-20T08:19:03;1.20;;;0.00;;
83511;SDS011;73446;0.000;0.000;2023-12-20T08:21:48;1.50;;;0.00;;
83511;SDS011;73446;0.000;0.000;2023-12-20T08:24:32;1.25;;;0.00;;
83511;SDS011;73446;0.000;0.000;2023-12-20T08:27:16;0.47;;;0.00;;
83511;SDS011;73446;0.000;0.000;2023-12-20T08:30:00;0.55;;;0.00;;
83511;SDS011;73446;0.000;0.000;2023-12-20T08:32:44;0.22;;;0.00;;
83511;SDS011;73446;0.000;0.000;2023-12-20T08:35:28;0.13;;;0.00;;
83511;SDS011;73446;0.000;0.000;2023-12-20T08:38:12;0.13;;;0.00;;
83511;SDS011;73446;0.000;0.000;2023-12-20T08:40:57;0.35;;;0.00;;
83511;SDS011;73446;0.000;0.000;2023-12-20T08:43:41;0.10;;;0.00;;
83511;SDS011;73446;0.000;0.000;2023-12-20T08:46:25;0.30;;;0.20;;
83511;SDS011;73446;0.000;0.000;2023-12-20T08:49:09;0.00;;;0.00;;
83511;SDS011;73446;0.000;0.000;2023-12-20T08:51:53;0.15;;;0.00;;
83511;SDS011;73446;0.000;0.000;2023-12-20T08:54:37;0.10;;;0.00;;
83511;SDS011;73446;0.000;0.000;2023-12-20T08:57:21;0.13;;;0.10;;
83511;SDS011;73446;0.000;0.000;2023-12-20T09:00:07;0.20;;;0.20;;
83511;SDS011;73446;0.000;0.000;2023-12-20T09:02:52;2.38;;;0.05;;
83511;SDS011;73446;0.000;0.000;2023-12-20T09:05:36;2.42;;;0.00;;
83511;SDS011;73446;0.000;0.000;2023-12-20T09:08:20;2.30;;;0.00;;
83511;SDS011;73446;0.000;0.000;2023-12-20T09:11:05;1.98;;;0.03;;
83511;SDS011;73446;0.000;0.000;2023-12-20T09:13:50;2.15;;;0.00;;
83511;SDS011;73446;0.000;0.000;2023-12-20T09:16:34;0.15;;;0.00;;
83511;SDS011;73446;0.000;0.000;2023-12-20T09:19:18;0.38;;;0.10;;
83511;SDS011;73446;0.000;0.000;2023-12-20T09:22:02;1.60;;;0.00;;
83511;SDS011;73446;0.000;0.000;2023-12-20T09:24:47;1.73;;;0.45;;
83511;SDS011;73446;0.000;0.000;2023-12-20T09:27:31;0.13;;;0.00;;
83511;SDS011;73446;0.000;0.000;2023-12-20T09:30:15;0.55;;;0.13;;
83511;SDS011;73446;0.000;0.000;2023-12-20T09:32:59;0.17;;;0.03;;
83511;SDS011;73446;0.000;0.000;2023-12-20T09:35:43;0.70;;;0.00;;
83511;SDS011;73446;0.000;0.000;2023-12-20T09:38:27;0.20;;;0.00;;
83511;SDS011;73446;0.000;0.000;2023-12-20T09:41:12;0.30;;;0.00;;
83511;SDS011;73446;0.000;0.000;2023-12-20T09:43:56;0.43;;;0.00;;
83511;SDS011;73446;0.000;0.000;2023-12-20T09:46:47;1.17;;;0.00;;
83511;SDS011;73446;0.000;0.000;2023-12-20T09:49:34;0.28;;;0.00;;
83511;SDS011;73446;0.000;0.000;2023-12-20T09:52:20;0.20;;;0.00;;
83511;SDS011;73446;0.000;0.000;2023-12-20T09:55:07;0.10;;;0.00;;
83511;SDS011;73446;0.000;0.000;2023-12-20T09:57:54;0.00;;;0.00;;
83511;SDS011;73446;0.000;0.000;2023-12-20T10:00:38;0.15;;;0.00;;
83511;SDS011;73446;0.000;0.000;2023-12-20T10:03:24;0.20;;;0.00;;
83511;SDS011;73446;0.000;0.000;2023-12-20T10:06:09;0.10;;;0.00;;
83511;SDS011;73446;0.000;0.000;2023-12-20T10:08:54;0.20;;;0.00;;
83511;SDS011;73446;0.000;0.000;2023-12-20T10:11:38;0.28;;;0.10;;
83511;SDS011;73446;0.000;0.000;2023-12-20T10:14:23;0.20;;;0.03;;
83511;SDS011;73446;0.000;0.000;2023-12-20T10:17:07;0.10;;;0.03;;
83511;SDS011;73446;0.000;0.000;2023-12-20T10:19:52;0.50;;;0.20;;
83511;SDS011;73446;0.000;0.000;2023-12-20T10:22:36;0.28;;;0.00;;
83511;SDS011;73446;0.000;0.000;2023-12-20T10:25:21;0.30;;;0.00;;
83511;SDS011;73446;0.000;0.000;2023-12-20T10:30:52;0.32;;;0.00;;
83511;SDS011;73446;0.000;0.000;2023-12-20T10:33:36;0.30;;;0.00;;
83511;SDS011;73446;0.000;0.000;2023-12-20T10:36:24;0.03;;;0.00;;
83511;SDS011;73446;0.000;0.000;2023-12-20T10:39:13;1.35;;;0.00;;
83511;SDS011;73446;0.000;0.000;2023-12-20T10:41:58;0.60;;;0.00;;
83511;SDS011;73446;0.000;0.000;2023-12-20T10:44:42;0.65;;;0.20;;
83511;SDS011;73446;0.000;0.000;2023-12-20T10:47:26;0.43;;;0.20;;
83511;SDS011;73446;0.000;0.000;2023-12-20T10:50:11;0.80;;;0.00;;
83511;SDS011;73446;0.000;0.000;2023-12-20T10:52:58;0.95;;;0.00;;
83511;SDS011;73446;0.000;0.000;2023-12-20T10:55:43;0.38;;;0.00;;
83511;SDS011;73446;0.000;0.000;2023-12-20T10:58:28;0.93;;;0.05;;
83511;SDS011;73446;0.000;0.000;2023-12-20T11:01:14;0.50;;;0.00;;
83511;SDS011;73446;0.000;0.000;2023-12-20T11:04:08;0.47;;;0.00;;
83511;SDS011;73446;0.000;0.000;2023-12-20T11:06:59;0.68;;;0.00;;
83511;SDS011;73446;0.000;0.000;2023-12-20T11:12:54;2.58;;;0.00;;
83511;SDS011;73446;0.000;0.000;2023-12-20T11:15:49;0.13;;;0.00;;
83511;SDS011;73446;0.000;0.000;2023-12-20T11:18:33;1.60;;;0.00;;
83511;SDS011;73446;0.000;0.000;2023-12-20T11:21:17;2.25;;;0.00;;
83511;SDS011;73446;0.000;0.000;2023-12-20T11:24:01;0.80;;;0.00;;
83511;SDS011;73446;0.000;0.000;2023-12-20T11:26:47;1.75;;;0.00;;
83511;SDS011;73446;0.000;0.000;2023-12-20T11:29:35;0.17;;;0.00;;
83511;SDS011;73446;0.000;0.000;2023-12-20T11:37:54;0.45;;;0.03;;
83511;SDS011;73446;0.000;0.000;2023-12-20T11:40:41;0.28;;;0.00;;
83511;SDS011;73446;0.000;0.000;2023-12-20T11:43:31;0.20;;;0.00;;
83511;SDS011;73446;0.000;0.000;2023-12-20T11:46:21;0.10;;;0.00;;
83511;SDS011;73446;0.000;0.000;2023-12-20T11:49:05;0.80;;;0.00;;
83511;SDS011;73446;0.000;0.000;2023-12-20T11:51:50;0.30;;;0.00;;
83511;SDS011;73446;0.000;0.000;2023-12-20T11:54:34;0.20;;;0.00;;
83511;SDS011;73446;0.000;0.000;2023-12-20T11:57:18;0.63;;;0.00;;
83511;SDS011;73446;0.000;0.000;2023-12-20T12:00:02;0.43;;;0.00;;
83511;SDS011;73446;0.000;0.000;2023-12-20T12:02:56;0.80;;;0.00;;
83511;SDS011;73446;0.000;0.000;2023-12-20T12:05:41;0.10;;;0.00;;
83511;SDS011;73446;0.000;0.000;2023-12-20T12:08:25;0.20;;;0.00;;
83511;SDS011;73446;0.000;0.000;2023-12-20T12:11:09;0.30;;;0.00;;
83511;SDS011;73446;0.000;0.000;2023-12-20T12:13:53;0.08;;;0.00;;
83511;SDS011;73446;0.000;0.000;2023-12-20T12:16:37;0.20;;;0.05;;
83511;SDS011;73446;0.000;0.000;2023-12-20T12:19:22;3.13;;;0.20;;
83511;SDS011;73446;0.000;0.000;2023-12-20T12:22:08;1.13;;;0.00;;
83511;SDS011;73446;0.000;0.000;2023-12-20T12:25:09;1.75;;;0.00;;
83511;SDS011;73446;0.000;0.000;2023-12-20T12:27:55;1.55;;;0.00;;
83511;SDS011;73446;0.000;0.000;2023-12-20T12:30:39;1.35;;;0.13;;
83511;SDS011;73446;0.000;0.000;2023-12-20T12:33:27;0.45;;;0.00;;
83511;SDS011;73446;0.000;0.000;2023-12-20T12:36:12;1.17;;;0.10;;
83511;SDS011;73446;0.000;0.000;2023-12-20T12:38:56;1.88;;;0.00;;
83511;SDS011;73446;0.000;0.000;2023-12-20T12:41:41;1.98;;;0.43;;
83511;SDS011;73446;0.000;0.000;2023-12-20T12:44:26;0.45;;;0.00;;
83511;SDS011;73446;0.000;0.000;2023-12-20T12:47:09;2.10;;;0.00;;
83511;SDS011;73446;0.000;0.000;2023-12-20T12:49:54;2.70;;;0.00;;
83511;SDS011;73446;0.000;0.000;2023-12-20T12:52:38;3.47;;;0.00;;
83511;SDS011;73446;0.000;0.000;2023-12-20T12:55:22;1.73;;;0.08;;
83511;SDS011;73446;0.000;0.000;2023-12-20T12:58:06;1.98;;;0.00;;
83511;SDS011;73446;0.000;0.000;2023-12-20T13:00:50;7.65;;;0.00;;
83511;SDS011;73446;0.000;0.000;2023-12-20T13:03:35;4.95;;;0.00;;
83511;SDS011;73446;0.000;0.000;2023-12-20T13:06:19;0.70;;;0.00;;
83511;SDS011;73446;0.000;0.000;2023-12-20T13:09:03;0.85;;;0.00;;
83511;SDS011;73446;0.000;0.000;2023-12-20T13:11:48;3.25;;;0.00;;
83511;SDS011;73446;0.000;0.000;2023-12-20T13:14:33;4.13;;;0.10;;
83511;SDS011;73446;0.000;0.000;2023-12-20T13:17:18;3.70;;;0.00;;
83511;SDS011;73446;0.000;0.000;2023-12-20T13:20:02;3.53;;;0.22;;
83511;SDS011;73446;0.000;0.000;2023-12-20T13:22:46;1.65;;;0.17;;
83511;SDS011;73446;0.000;0.000;2023-12-20T13:25:30;2.08;;;0.10;;
83511;SDS011;73446;0.000;0.000;2023-12-20T13:28:14;3.42;;;0.30;;
83511;SDS011;73446;0.000;0.000;2023-12-20T13:30:58;10.27;;;0.17;;
83511;SDS011;73446;0.000;0.000;2023-12-20T13:33:43;3.63;;;0.00;;
83511;SDS011;73446;0.000;0.000;2023-12-20T13:36:27;2.97;;;0.10;;
83511;SDS011;73446;0.000;0.000;2023-12-20T13:39:11;0.80;;;0.03;;
83511;SDS011;73446;0.000;0.000;2023-12-20T13:41:56;0.65;;;0.00;;
83511;SDS011;73446;0.000;0.000;2023-12-20T13:44:40;1.38;;;0.00;;
83511;SDS011;73446;0.000;0.000;2023-12-20T13:47:24;0.60;;;0.00;;
83511;SDS011;73446;0.000;0.000;2023-12-20T13:50:08;0.22;;;0.00;;
83511;SDS011;73446;0.000;0.000;2023-12-20T13:52:53;0.45;;;0.00;;
83511;SDS011;73446;0.000;0.000;2023-12-20T13:55:36;2.00;;;0.15;;
83511;SDS011;73446;0.000;0.000;2023-12-20T13:58:21;0.95;;;0.00;;
83511;SDS011;73446;0.000;0.000;2023-12-20T14:01:05;0.43;;;0.00;;
83511;SDS011;73446;0.000;0.000;2023-12-20T14:03:49;0.45;;;0.00;;
83511;SDS011;73446;0.000;0.000;2023-12-20T14:06:33;0.40;;;0.00;;
83511;SDS011;73446;0.000;0.000;2023-12-20T14:09:17;1.85;;;0.20;;
83511;SDS011;73446;0.000;0.000;2023-12-20T14:12:02;1.33;;;0.00;;
83511;SDS011;73446;0.000;0.000;2023-12-20T14:14:46;0.52;;;0.00;;
83511;SDS011;73446;0.000;0.000;2023-12-20T14:17:30;1.60;;;0.00;;
83511;SDS011;73446;0.000;0.000;2023-12-20T14:20:15;0.50;;;0.00;;
83511;SDS011;73446;0.000;0.000;2023-12-20T14:23:03;2.17;;;0.22;;
83511;SDS011;73446;0.000;0.000;2023-12-20T14:25:47;0.82;;;0.00;;
83511;SDS011;73446;0.000;0.000;2023-12-20T14:28:32;0.15;;;0.00;;
83511;SDS011;73446;0.000;0.000;2023-12-20T14:31:17;0.43;;;0.00;;
83511;SDS011;73446;0.000;0.000;2023-12-20T14:34:01;0.63;;;0.20;;
83511;SDS011;73446;0.000;0.000;2023-12-20T14:36:47;0.85;;;0.00;;
83511;SDS011;73446;0.000;0.000;2023-12-20T14:39:32;2.88;;;0.00;;
83511;SDS011;73446;0.000;0.000;2023-12-20T14:42:16;0.10;;;0.00;;
83511;SDS011;73446;0.000;0.000;2023-12-20T14:45:00;1.10;;;0.00;;
83511;SDS011;73446;0.000;0.000;2023-12-20T14:47:43;1.23;;;0.00;;
83511;SDS011;73446;0.000;0.000;2023-12-20T14:50:28;0.08;;;0.00;;
83511;SDS011;73446;0.000;0.000;2023-12-20T14:53:12;0.10;;;0.00;;
83511;SDS011;73446;0.000;0.000;2023-12-20T14:55:56;0.45;;;0.00;;
83511;SDS011;73446;0.000;0.000;2023-12-20T14:58:40;0.10;;;0.00;;
83511;SDS011;73446;0.000;0.000;2023-12-20T15:01:24;0.22;;;0.00;;
83511;SDS011;73446;0.000;0.000;2023-12-20T15:04:08;0.50;;;0.10;;
83511;SDS011;73446;0.000;0.000;2023-12-20T15:06:52;0.43;;;0.00;;
83511;SDS011;73446;0.000;0.000;2023-12-20T15:09:37;0.03;;;0.00;;
83511;SDS011;73446;0.000;0.000;2023-12-20T15:12:21;0.20;;;0.20;;
83511;SDS011;73446;0.000;0.000;2023-12-20T15:15:06;0.03;;;0.00;;
83511;SDS011;73446;0.000;0.000;2023-12-20T15:17:53;0.47;;;0.00;;
83511;SDS011;73446;0.000;0.000;2023-12-20T15:20:37;0.28;;;0.00;;
83511;SDS011;73446;0.000;0.000;2023-12-20T15:23:21;0.10;;;0.00;;
83511;SDS011;73446;0.000;0.000;2023-12-20T15:26:09;0.63;;;0.00;;
83511;SDS011;73446;0.000;0.000;2023-12-20T15:28:53;0.00;;;0.00;;
83511;SDS011;73446;0.000;0.000;2023-12-20T15:31:41;1.15;;;0.00;;
83511;SDS011;73446;0.000;0.000;2023-12-20T15:34:26;1.13;;;0.00;;
83511;SDS011;73446;0.000;0.000;2023-12-20T15:37:10;1.65;;;0.03;;
83511;SDS011;73446;0.000;0.000;2023-12-20T15:39:54;1.73;;;0.10;;
83511;SDS011;73446;0.000;0.000;2023-12-20T15:42:38;1.85;;;0.00;;
83511;SDS011;73446;0.000;0.000;2023-12-20T15:45:23;5.57;;;0.15;;
83511;SDS011;73446;0.000;0.000;2023-12-20T15:48:07;2.30;;;0.00;;
83511;SDS011;73446;0.000;0.000;2023-12-20T15:50:52;1.80;;;0.45;;
83511;SDS011;73446;0.000;0.000;2023-12-20T15:53:39;3.05;;;0.10;;
83511;SDS011;73446;0.000;0.000;2023-12-20T15:56:23;2.20;;;0.00;;
83511;SDS011;73446;0.000;0.000;2023-12-20T15:59:07;1.20;;;0.00;;
83511;SDS011;73446;0.000;0.000;2023-12-20T16:01:52;2.75;;;0.35;;
83511;SDS011;73446;0.000;0.000;2023-12-20T16:04:37;3.50;;;0.00;;
83511;SDS011;73446;0.000;0.000;2023-12-20T16:07:21;6.43;;;0.00;;
83511;SDS011;73446;0.000;0.000;2023-12-20T16:10:06;7.07;;;0.40;;
83511;SDS011;73446;0.000;0.000;2023-12-20T16:12:50;1.77;;;0.00;;
83511;SDS011;73446;0.000;0.000;2023-12-20T16:15:34;1.17;;;0.00;;
83511;SDS011;73446;0.000;0.000;2023-12-20T16:18:19;1.77;;;0.00;;
83511;SDS011;73446;0.000;0.000;2023-12-20T16:21:03;4.38;;;0.00;;
83511;SDS011;73446;0.000;0.000;2023-12-20T16:23:47;1.60;;;0.10;;
83511;SDS011;73446;0.000;0.000;2023-12-20T16:26:31;7.55;;;0.38;;
83511;SDS011;73446;0.000;0.000;2023-12-20T16:29:16;3.20;;;0.00;;
83511;SDS011;73446;0.000;0.000;2023-12-20T16:31:59;1.48;;;0.00;;
83511;SDS011;73446;0.000;0.000;2023-12-20T16:34:44;3.20;;;0.00;;
83511;SDS011;73446;0.000;0.000;2023-12-20T16:37:28;6.53;;;0.22;;
83511;SDS011;73446;0.000;0.000;2023-12-20T16:40:12;10.32;;;0.95;;
83511;SDS011;73446;0.000;0.000;2023-12-20T16:42:56;1.58;;;0.00;;
83511;SDS011;73446;0.000;0.000;2023-12-20T16:45:41;3.58;;;0.00;;
83511;SDS011;73446;0.000;0.000;2023-12-20T16:48:25;1.70;;;0.38;;
83511;SDS011;73446;0.000;0.000;2023-12-20T16:51:09;4.35;;;0.08;;
83511;SDS011;73446;0.000;0.000;2023-12-20T16:53:53;1.77;;;0.55;;
83511;SDS011;73446;0.000;0.000;2023-12-20T16:56:37;2.65;;;0.00;;
83511;SDS011;73446;0.000;0.000;2023-12-20T16:59:20;6.43;;;0.20;;
83511;SDS011;73446;0.000;0.000;2023-12-20T17:02:07;5.05;;;0.08;;